sensor_id;sensor_type;location;lat;lon;timestamp;pressure;altitude;pressure_sealevel;temperature;humidity
50484;BME280;36409;52.168;20.878;2023-06-22T00:02:31;100532.98;;;18.77;73.91
50484;BME280;36409;52.168;20.878;2023-06-22T00:05:04;100542.67;;;18.76;74.08
50484;BME280;36409;52.168;20.878;2023-06-22T00:07:34;100542.77;;;18.75;73.83
50484;BME280;36409;52.168;20.878;2023-06-22T00:10:09;100543.69;;;18.74;73.92
50484;BME280;36409;52.168;20.878;2023-06-22T00:12:39;100535.97;;;18.69;74.10
50484;BME280;36409;52.168;20.878;2023-06-22T00:15:09;100537.95;;;18.64;73.98
50484;BME280;36409;52.168;20.878;2023-06-22T00:17:49;100531.02;;;18.61;74.05
50484;BME280;36409;52.168;20.878;2023-06-22T00:20:18;100534.75;;;18.57;73.73
50484;BME280;36409;52.168;20.878;2023-06-22T00:22:48;100519.95;;;18.53;74.06
50484;BME280;36409;52.168;20.878;2023-06-22T00:25:17;100532.37;;;18.51;74.13
50484;BME280;36409;52.168;20.878;2023-06-22T00:27:46;100530.73;;;18.48;74.49
50484;BME280;36409;52.168;20.878;2023-06-22T00:30:16;100538.58;;;18.50;74.29
50484;BME280;36409;52.168;20.878;2023-06-22T00:32:52;100528.09;;;18.48;74.40
50484;BME280;36409;52.168;20.878;2023-06-22T00:35:21;100529.09;;;18.46;74.39
50484;BME280;36409;52.168;20.878;2023-06-22T00:37:52;100521.21;;;18.44;74.29
50484;BME280;36409;52.168;20.878;2023-06-22T00:40:32;100513.36;;;18.43;74.78
50484;BME280;36409;52.168;20.878;2023-06-22T00:43:01;100519.66;;;18.40;74.44
50484;BME280;36409;52.168;20.878;2023-06-22T00:45:39;100520.62;;;18.37;74.58
50484;BME280;36409;52.168;20.878;2023-06-22T00:48:09;100519.78;;;18.37;74.69
50484;BME280;36409;52.168;20.878;2023-06-22T00:50:40;100525.06;;;18.37;74.77
50484;BME280;36409;52.168;20.878;2023-06-22T00:53:09;100524.19;;;18.36;74.75
50484;BME280;36409;52.168;20.878;2023-06-22T00:55:43;100527.75;;;18.35;74.80
50484;BME280;36409;52.168;20.878;2023-06-22T00:58:21;100521.63;;;18.35;74.51
50484;BME280;36409;52.168;20.878;2023-06-22T01:00:51;100519.06;;;18.33;74.61
50484;BME280;36409;52.168;20.878;2023-06-22T01:03:22;100507.70;;;18.31;74.76
50484;BME280;36409;52.168;20.878;2023-06-22T01:06:00;100508.63;;;18.30;74.41
50484;BME280;36409;52.168;20.878;2023-06-22T01:08:42;100498.18;;;18.27;74.75
50484;BME280;36409;52.168;20.878;2023-06-22T01:11:20;100496.47;;;18.26;74.97
50484;BME280;36409;52.168;20.878;2023-06-22T01:13:55;100491.26;;;18.25;74.77
50484;BME280;36409;52.168;20.878;2023-06-22T01:16:34;100487.91;;;18.21;74.76
50484;BME280;36409;52.168;20.878;2023-06-22T01:19:26;100499.44;;;18.18;75.00
50484;BME280;36409;52.168;20.878;2023-06-22T01:22:00;100494.36;;;18.14;74.77
50484;BME280;36409;52.168;20.878;2023-06-22T01:24:40;100487.44;;;18.11;74.52
50484;BME280;36409;52.168;20.878;2023-06-22T01:27:21;100491.92;;;18.09;74.97
50484;BME280;36409;52.168;20.878;2023-06-22T01:29:56;100488.44;;;18.09;75.21
50484;BME280;36409;52.168;20.878;2023-06-22T01:32:30;100491.00;;;18.10;75.17
50484;BME280;36409;52.168;20.878;2023-06-22T01:35:07;100484.72;;;18.13;75.34
50484;BME280;36409;52.168;20.878;2023-06-22T01:37:37;100482.08;;;18.13;75.08
50484;BME280;36409;52.168;20.878;2023-06-22T01:40:08;100490.08;;;18.11;75.30
50484;BME280;36409;52.168;20.878;2023-06-22T01:42:40;100489.28;;;18.09;75.05
50484;BME280;36409;52.168;20.878;2023-06-22T01:45:12;100491.20;;;18.05;75.36
50484;BME280;36409;52.168;20.878;2023-06-22T01:47:41;100507.97;;;18.04;74.99
50484;BME280;36409;52.168;20.878;2023-06-22T01:50:11;100514.13;;;18.05;75.13
50484;BME280;36409;52.168;20.878;2023-06-22T01:52:43;100517.61;;;18.05;75.34
50484;BME280;36409;52.168;20.878;2023-06-22T01:55:13;100521.97;;;18.06;75.37
50484;BME280;36409;52.168;20.878;2023-06-22T01:57:42;100527.17;;;18.08;75.62
50484;BME280;36409;52.168;20.878;2023-06-22T02:00:17;100535.98;;;18.09;75.37
50484;BME280;36409;52.168;20.878;2023-06-22T02:02:52;100523.69;;;18.08;75.47
50484;BME280;36409;52.168;20.878;2023-06-22T02:05:24;100528.09;;;18.07;75.43
50484;BME280;36409;52.168;20.878;2023-06-22T02:08:02;100530.73;;;18.07;75.62
50484;BME280;36409;52.168;20.878;2023-06-22T02:10:33;100537.82;;;18.06;75.93
50484;BME280;36409;52.168;20.878;2023-06-22T02:13:06;100541.26;;;18.09;75.49
50484;BME280;36409;52.168;20.878;2023-06-22T02:15:48;100548.18;;;18.11;75.67
50484;BME280;36409;52.168;20.878;2023-06-22T02:18:24;100553.27;;;18.16;76.00
50484;BME280;36409;52.168;20.878;2023-06-22T02:20:57;100548.70;;;18.19;75.89
50484;BME280;36409;52.168;20.878;2023-06-22T02:23:27;100543.38;;;18.21;75.89
50484;BME280;36409;52.168;20.878;2023-06-22T02:25:56;100551.94;;;18.26;76.01
50484;BME280;36409;52.168;20.878;2023-06-22T02:28:28;100559.66;;;18.31;76.18
50484;BME280;36409;52.168;20.878;2023-06-22T02:30:57;100562.98;;;18.36;76.09
50484;BME280;36409;52.168;20.878;2023-06-22T02:33:29;100558.41;;;18.40;76.14
50484;BME280;36409;52.168;20.878;2023-06-22T02:35:58;100561.72;;;18.45;76.31
50484;BME280;36409;52.168;20.878;2023-06-22T02:38:32;100572.09;;;18.49;76.75
50484;BME280;36409;52.168;20.878;2023-06-22T02:41:02;100570.16;;;18.53;76.49
50484;BME280;36409;52.168;20.878;2023-06-22T02:43:40;100574.40;;;18.57;76.39
50484;BME280;36409;52.168;20.878;2023-06-22T02:46:09;100581.24;;;18.61;76.51
50484;BME280;36409;52.168;20.878;2023-06-22T02:48:39;100581.11;;;18.64;76.31
50484;BME280;36409;52.168;20.878;2023-06-22T02:51:11;100580.06;;;18.68;76.53
50484;BME280;36409;52.168;20.878;2023-06-22T02:53:41;100587.83;;;18.72;76.70
50484;BME280;36409;52.168;20.878;2023-06-22T02:56:16;100592.99;;;18.75;76.66
50484;BME280;36409;52.168;20.878;2023-06-22T02:58:46;100589.42;;;18.76;76.61
50484;BME280;36409;52.168;20.878;2023-06-22T03:01:15;100593.66;;;18.80;76.75
50484;BME280;36409;52.168;20.878;2023-06-22T03:03:47;100600.63;;;18.81;76.80
50484;BME280;36409;52.168;20.878;2023-06-22T03:06:16;100598.73;;;18.85;76.73
50484;BME280;36409;52.168;20.878;2023-06-22T03:08:57;100600.38;;;18.87;76.85
50484;BME280;36409;52.168;20.878;2023-06-22T03:11:33;100601.09;;;18.91;77.09
50484;BME280;36409;52.168;20.878;2023-06-22T03:14:05;100604.52;;;18.93;76.94
50484;BME280;36409;52.168;20.878;2023-06-22T03:16:41;100613.20;;;18.96;77.33
50484;BME280;36409;52.168;20.878;2023-06-22T03:19:11;100607.84;;;18.98;77.13
50484;BME280;36409;52.168;20.878;2023-06-22T03:21:40;100601.57;;;19.01;77.40
50484;BME280;36409;52.168;20.878;2023-06-22T03:24:09;100599.72;;;19.03;77.25
50484;BME280;36409;52.168;20.878;2023-06-22T03:26:39;100595.19;;;19.05;77.31
50484;BME280;36409;52.168;20.878;2023-06-22T03:29:14;100597.70;;;19.08;77.50
50484;BME280;36409;52.168;20.878;2023-06-22T03:31:47;100601.14;;;19.10;77.12
50484;BME280;36409;52.168;20.878;2023-06-22T03:34:17;100605.42;;;19.12;77.15
50484;BME280;36409;52.168;20.878;2023-06-22T03:36:46;100608.86;;;19.14;77.28
50484;BME280;36409;52.168;20.878;2023-06-22T03:39:18;100612.30;;;19.17;77.55
50484;BME280;36409;52.168;20.878;2023-06-22T03:41:48;100612.22;;;19.18;77.36
50484;BME280;36409;52.168;20.878;2023-06-22T03:44:21;100624.38;;;19.22;77.42
50484;BME280;36409;52.168;20.878;2023-06-22T03:46:58;100633.03;;;19.26;77.29
50484;BME280;36409;52.168;20.878;2023-06-22T03:49:40;100636.47;;;19.28;77.65
50484;BME280;36409;52.168;20.878;2023-06-22T03:52:11;100631.97;;;19.30;77.68
50484;BME280;36409;52.168;20.878;2023-06-22T03:54:39;100634.40;;;19.35;77.54
50484;BME280;36409;52.168;20.878;2023-06-22T03:57:12;100638.55;;;19.40;77.44
50484;BME280;36409;52.168;20.878;2023-06-22T03:59:56;100640.97;;;19.45;77.55
50484;BME280;36409;52.168;20.878;2023-06-22T04:02:28;100647.82;;;19.49;77.23
50484;BME280;36409;52.168;20.878;2023-06-22T04:04:57;100641.23;;;19.58;77.76
50484;BME280;36409;52.168;20.878;2023-06-22T04:07:35;100646.17;;;19.66;77.56
50484;BME280;36409;52.168;20.878;2023-06-22T04:10:09;100637.78;;;19.75;77.78
50484;BME280;36409;52.168;20.878;2023-06-22T04:12:44;100639.05;;;19.85;77.84
50484;BME280;36409;52.168;20.878;2023-06-22T04:15:14;100644.80;;;19.95;77.78
50484;BME280;36409;52.168;20.878;2023-06-22T04:17:50;100646.14;;;20.04;77.77
50484;BME280;36409;52.168;20.878;2023-06-22T04:20:23;100644.89;;;20.11;77.67
50484;BME280;36409;52.168;20.878;2023-06-22T04:22:57;100649.73;;;20.20;77.35
50484;BME280;36409;52.168;20.878;2023-06-22T04:25:27;100649.58;;;20.24;77.25
50484;BME280;36409;52.168;20.878;2023-06-22T04:27:58;100659.95;;;20.28;77.43
50484;BME280;36409;52.168;20.878;2023-06-22T04:30:27;100659.80;;;20.31;77.49
50484;BME280;36409;52.168;20.878;2023-06-22T04:33:02;100663.30;;;20.32;77.41
50484;BME280;36409;52.168;20.878;2023-06-22T04:35:32;100656.19;;;20.32;77.11
50484;BME280;36409;52.168;20.878;2023-06-22T04:38:01;100664.22;;;20.31;77.43
50484;BME280;36409;52.168;20.878;2023-06-22T04:40:32;100661.66;;;20.29;77.06
50484;BME280;36409;52.168;20.878;2023-06-22T04:43:04;100659.71;;;20.33;77.16
50484;BME280;36409;52.168;20.878;2023-06-22T04:45:35;100651.61;;;20.36;77.52
50484;BME280;36409;52.168;20.878;2023-06-22T04:48:07;100653.16;;;20.40;77.53
50484;BME280;36409;52.168;20.878;2023-06-22T04:50:40;100655.66;;;20.43;77.53
50484;BME280;36409;52.168;20.878;2023-06-22T04:53:09;100650.98;;;20.48;77.15
50484;BME280;36409;52.168;20.878;2023-06-22T04:55:41;100647.55;;;20.46;77.18
50484;BME280;36409;52.168;20.878;2023-06-22T04:58:14;100654.63;;;20.46;76.89
50484;BME280;36409;52.168;20.878;2023-06-22T05:00:48;100649.88;;;20.52;77.43
50484;BME280;36409;52.168;20.878;2023-06-22T05:03:20;100654.88;;;20.59;76.98
50484;BME280;36409;52.168;20.878;2023-06-22T05:05:50;100653.70;;;20.64;76.89
50484;BME280;36409;52.168;20.878;2023-06-22T05:08:20;100655.00;;;20.73;76.84
50484;BME280;36409;52.168;20.878;2023-06-22T05:10:52;100654.72;;;20.79;76.89
50484;BME280;36409;52.168;20.878;2023-06-22T05:13:34;100653.30;;;20.90;77.21
50484;BME280;36409;52.168;20.878;2023-06-22T05:16:21;100647.40;;;21.01;77.28
50484;BME280;36409;52.168;20.878;2023-06-22T05:18:53;100642.72;;;21.06;76.71
50484;BME280;36409;52.168;20.878;2023-06-22T05:21:26;100650.43;;;21.10;76.83
50484;BME280;36409;52.168;20.878;2023-06-22T05:24:01;100658.30;;;21.12;76.52
50484;BME280;36409;52.168;20.878;2023-06-22T05:26:34;100659.95;;;21.14;76.45
50484;BME280;36409;52.168;20.878;2023-06-22T05:29:03;100662.60;;;21.14;76.55
50484;BME280;36409;52.168;20.878;2023-06-22T05:31:38;100668.59;;;21.18;76.46
50484;BME280;36409;52.168;20.878;2023-06-22T05:34:15;100682.55;;;21.22;76.76
50484;BME280;36409;52.168;20.878;2023-06-22T05:36:44;100675.37;;;21.24;76.24
50484;BME280;36409;52.168;20.878;2023-06-22T05:39:14;100675.37;;;21.24;76.71
50484;BME280;36409;52.168;20.878;2023-06-22T05:41:44;100676.99;;;21.26;76.55
50484;BME280;36409;52.168;20.878;2023-06-22T05:44:14;100678.45;;;21.32;76.24
50484;BME280;36409;52.168;20.878;2023-06-22T05:46:45;100681.89;;;21.34;76.46
50484;BME280;36409;52.168;20.878;2023-06-22T05:49:15;100680.02;;;21.36;76.00
50484;BME280;36409;52.168;20.878;2023-06-22T05:51:44;100687.10;;;21.36;76.27
50484;BME280;36409;52.168;20.878;2023-06-22T05:54:16;100683.45;;;21.38;75.88
50484;BME280;36409;52.168;20.878;2023-06-22T05:56:46;100682.31;;;21.42;76.51
50484;BME280;36409;52.168;20.878;2023-06-22T05:59:15;100680.28;;;21.48;75.84
50484;BME280;36409;52.168;20.878;2023-06-22T06:01:47;100680.19;;;21.49;76.08
50484;BME280;36409;52.168;20.878;2023-06-22T06:04:19;100687.11;;;21.52;75.69
50484;BME280;36409;52.168;20.878;2023-06-22T06:06:48;100691.10;;;21.60;75.79
50484;BME280;36409;52.168;20.878;2023-06-22T06:09:17;100699.69;;;21.66;75.99
50484;BME280;36409;52.168;20.878;2023-06-22T06:11:49;100707.39;;;21.70;75.56
50484;BME280;36409;52.168;20.878;2023-06-22T06:14:18;100707.03;;;21.77;75.58
50484;BME280;36409;52.168;20.878;2023-06-22T06:16:49;100705.67;;;21.85;75.66
50484;BME280;36409;52.168;20.878;2023-06-22T06:19:18;100710.56;;;21.93;75.66
50484;BME280;36409;52.168;20.878;2023-06-22T06:21:47;100706.94;;;22.10;75.39
50484;BME280;36409;52.168;20.878;2023-06-22T06:24:16;100707.84;;;22.25;75.51
50484;BME280;36409;52.168;20.878;2023-06-22T06:26:45;100705.08;;;22.43;75.25
50484;BME280;36409;52.168;20.878;2023-06-22T06:29:14;100700.75;;;22.56;75.11
50484;BME280;36409;52.168;20.878;2023-06-22T06:31:44;100695.50;;;22.85;74.95
50484;BME280;36409;52.168;20.878;2023-06-22T06:34:14;100693.78;;;22.98;74.60
50484;BME280;36409;52.168;20.878;2023-06-22T06:36:43;100693.80;;;23.13;74.69
50484;BME280;36409;52.168;20.878;2023-06-22T06:39:21;100697.80;;;23.35;74.14
50484;BME280;36409;52.168;20.878;2023-06-22T06:41:53;100695.03;;;23.51;73.83
50484;BME280;36409;52.168;20.878;2023-06-22T06:44:25;100692.81;;;23.72;73.91
50484;BME280;36409;52.168;20.878;2023-06-22T06:46:54;100693.81;;;23.84;73.84
50484;BME280;36409;52.168;20.878;2023-06-22T06:49:26;100687.03;;;23.93;73.55
50484;BME280;36409;52.168;20.878;2023-06-22T06:51:55;100687.86;;;24.08;73.41
50484;BME280;36409;52.168;20.878;2023-06-22T06:54:24;100689.91;;;24.17;73.08
50484;BME280;36409;52.168;20.878;2023-06-22T06:56:53;100697.01;;;24.31;72.85
50484;BME280;36409;52.168;20.878;2023-06-22T06:59:22;100690.42;;;24.49;72.23
50484;BME280;36409;52.168;20.878;2023-06-22T07:01:51;100684.45;;;24.59;72.05
50484;BME280;36409;52.168;20.878;2023-06-22T07:04:21;100687.27;;;24.70;71.91
50484;BME280;36409;52.168;20.878;2023-06-22T07:06:50;100693.80;;;24.79;71.56
50484;BME280;36409;52.168;20.878;2023-06-22T07:09:18;100687.18;;;25.10;71.35
50484;BME280;36409;52.168;20.878;2023-06-22T07:11:48;100684.14;;;25.78;70.95
50484;BME280;36409;52.168;20.878;2023-06-22T07:14:20;100682.98;;;26.42;70.03
50484;BME280;36409;52.168;20.878;2023-06-22T07:16:49;100696.31;;;26.66;69.09
50484;BME280;36409;52.168;20.878;2023-06-22T07:19:25;100707.00;;;26.55;69.09
50484;BME280;36409;52.168;20.878;2023-06-22T07:21:59;100702.09;;;26.49;68.94
50484;BME280;36409;52.168;20.878;2023-06-22T07:24:29;100708.31;;;26.49;68.69
50484;BME280;36409;52.168;20.878;2023-06-22T07:26:58;100703.77;;;26.39;68.39
50484;BME280;36409;52.168;20.878;2023-06-22T07:29:27;100712.37;;;26.31;68.36
50484;BME280;36409;52.168;20.878;2023-06-22T07:31:58;100705.91;;;26.22;68.12
50484;BME280;36409;52.168;20.878;2023-06-22T07:34:29;100705.86;;;26.11;67.77
50484;BME280;36409;52.168;20.878;2023-06-22T07:36:59;100712.36;;;26.06;67.94
50484;BME280;36409;52.168;20.878;2023-06-22T07:39:31;100707.92;;;25.94;67.12
50484;BME280;36409;52.168;20.878;2023-06-22T07:42:00;100706.77;;;25.85;67.32
50484;BME280;36409;52.168;20.878;2023-06-22T07:44:29;100709.70;;;25.82;67.02
50484;BME280;36409;52.168;20.878;2023-06-22T07:46:58;100716.09;;;25.80;66.82
50484;BME280;36409;52.168;20.878;2023-06-22T07:49:28;100713.88;;;25.73;66.39
50484;BME280;36409;52.168;20.878;2023-06-22T07:51:58;100715.59;;;25.74;66.86
50484;BME280;36409;52.168;20.878;2023-06-22T07:54:30;100719.02;;;25.77;66.58
50484;BME280;36409;52.168;20.878;2023-06-22T07:56:59;100723.27;;;25.79;65.95
50484;BME280;36409;52.168;20.878;2023-06-22T07:59:30;100721.34;;;25.81;65.80
50484;BME280;36409;52.168;20.878;2023-06-22T08:01:59;100715.75;;;25.84;66.05
50484;BME280;36409;52.168;20.878;2023-06-22T08:04:29;100721.29;;;25.94;66.02
50484;BME280;36409;52.168;20.878;2023-06-22T08:07:00;100724.37;;;26.01;65.69
50484;BME280;36409;52.168;20.878;2023-06-22T08:09:30;100722.09;;;26.08;65.29
50484;BME280;36409;52.168;20.878;2023-06-22T08:12:00;100719.30;;;26.09;65.03
50484;BME280;36409;52.168;20.878;2023-06-22T08:14:31;100714.84;;;26.10;64.71
50484;BME280;36409;52.168;20.878;2023-06-22T08:17:01;100714.30;;;26.04;64.93
50484;BME280;36409;52.168;20.878;2023-06-22T08:19:30;100715.37;;;26.02;64.79
50484;BME280;36409;52.168;20.878;2023-06-22T08:21:59;100709.81;;;26.05;64.88
50484;BME280;36409;52.168;20.878;2023-06-22T08:24:31;100703.59;;;26.04;64.36
50484;BME280;36409;52.168;20.878;2023-06-22T08:27:00;100701.48;;;26.10;64.52
50484;BME280;36409;52.168;20.878;2023-06-22T08:29:29;100708.68;;;26.20;64.54
50484;BME280;36409;52.168;20.878;2023-06-22T08:31:58;100711.01;;;26.25;64.28
50484;BME280;36409;52.168;20.878;2023-06-22T08:34:28;100703.11;;;26.24;63.54
50484;BME280;36409;52.168;20.878;2023-06-22T08:36:57;100709.08;;;26.27;63.56
50484;BME280;36409;52.168;20.878;2023-06-22T08:39:28;100707.53;;;26.36;63.38
50484;BME280;36409;52.168;20.878;2023-06-22T08:42:08;100707.80;;;26.44;62.95
50484;BME280;36409;52.168;20.878;2023-06-22T08:44:39;100713.54;;;26.51;62.90
50484;BME280;36409;52.168;20.878;2023-06-22T08:47:08;100717.95;;;26.63;62.42
50484;BME280;36409;52.168;20.878;2023-06-22T08:49:40;100713.47;;;26.75;62.25
50484;BME280;36409;52.168;20.878;2023-06-22T08:52:20;100718.41;;;26.93;61.67
50484;BME280;36409;52.168;20.878;2023-06-22T08:54:52;100713.81;;;27.18;61.32
50484;BME280;36409;52.168;20.878;2023-06-22T08:57:22;100724.25;;;27.43;61.06
50484;BME280;36409;52.168;20.878;2023-06-22T08:59:53;100720.50;;;27.69;60.18
50484;BME280;36409;52.168;20.878;2023-06-22T09:02:22;100720.55;;;27.90;60.07
50484;BME280;36409;52.168;20.878;2023-06-22T09:04:51;100725.48;;;28.17;59.77
50484;BME280;36409;52.168;20.878;2023-06-22T09:07:24;100727.69;;;28.45;59.17
50484;BME280;36409;52.168;20.878;2023-06-22T09:09:55;100715.52;;;28.62;58.69
50484;BME280;36409;52.168;20.878;2023-06-22T09:12:25;100724.77;;;28.90;58.33
50484;BME280;36409;52.168;20.878;2023-06-22T09:14:55;100721.91;;;29.13;57.95
50484;BME280;36409;52.168;20.878;2023-06-22T09:17:28;100721.95;;;29.44;57.73
50484;BME280;36409;52.168;20.878;2023-06-22T09:19:58;100719.16;;;29.65;56.59
50484;BME280;36409;52.168;20.878;2023-06-22T09:22:28;100713.39;;;29.80;56.34
50484;BME280;36409;52.168;20.878;2023-06-22T09:24:57;100707.02;;;29.90;55.41
50484;BME280;36409;52.168;20.878;2023-06-22T09:27:28;100702.25;;;30.04;55.54
50484;BME280;36409;52.168;20.878;2023-06-22T09:29:57;100702.55;;;30.20;54.86
50484;BME280;36409;52.168;20.878;2023-06-22T09:32:27;100701.41;;;30.33;55.01
50484;BME280;36409;52.168;20.878;2023-06-22T09:34:56;100696.98;;;30.42;54.10
50484;BME280;36409;52.168;20.878;2023-06-22T09:37:25;100703.11;;;30.54;53.86
50484;BME280;36409;52.168;20.878;2023-06-22T09:39:57;100702.63;;;30.78;54.15
50484;BME280;36409;52.168;20.878;2023-06-22T09:42:27;100702.71;;;30.96;53.27
50484;BME280;36409;52.168;20.878;2023-06-22T09:44:56;100703.80;;;31.03;52.34
50484;BME280;36409;52.168;20.878;2023-06-22T09:47:27;100706.06;;;31.18;52.41
50484;BME280;36409;52.168;20.878;2023-06-22T09:49:59;100701.88;;;31.33;52.12
50484;BME280;36409;52.168;20.878;2023-06-22T09:52:29;100700.23;;;31.50;51.51
50484;BME280;36409;52.168;20.878;2023-06-22T09:55:16;100709.35;;;31.67;50.94
50484;BME280;36409;52.168;20.878;2023-06-22T09:57:54;100697.27;;;31.71;50.70
50484;BME280;36409;52.168;20.878;2023-06-22T10:00:26;100712.94;;;31.86;50.37
50484;BME280;36409;52.168;20.878;2023-06-22T10:02:56;100698.16;;;31.90;50.14
50484;BME280;36409;52.168;20.878;2023-06-22T10:05:29;100701.52;;;32.10;50.11
50484;BME280;36409;52.168;20.878;2023-06-22T10:08:03;100701.63;;;32.37;49.92
50484;BME280;36409;52.168;20.878;2023-06-22T10:10:33;100698.52;;;32.49;49.09
50484;BME280;36409;52.168;20.878;2023-06-22T10:13:08;100705.97;;;32.56;48.84
50484;BME280;36409;52.168;20.878;2023-06-22T10:15:47;100713.28;;;32.63;48.67
50484;BME280;36409;52.168;20.878;2023-06-22T10:18:19;100702.48;;;32.63;48.36
50484;BME280;36409;52.168;20.878;2023-06-22T10:20:51;100708.09;;;32.70;48.50
50484;BME280;36409;52.168;20.878;2023-06-22T10:23:21;100707.27;;;32.70;48.16
50484;BME280;36409;52.168;20.878;2023-06-22T10:25:54;100703.47;;;32.80;47.83
50484;BME280;36409;52.168;20.878;2023-06-22T10:28:25;100707.63;;;32.75;47.46
50484;BME280;36409;52.168;20.878;2023-06-22T10:30:54;100692.80;;;32.79;47.16
50484;BME280;36409;52.168;20.878;2023-06-22T10:33:23;100690.50;;;32.66;47.03
50484;BME280;36409;52.168;20.878;2023-06-22T10:35:52;100687.53;;;32.77;46.95
50484;BME280;36409;52.168;20.878;2023-06-22T10:38:21;100690.17;;;32.87;47.18
50484;BME280;36409;52.168;20.878;2023-06-22T10:40:50;100692.48;;;33.08;46.75
50484;BME280;36409;52.168;20.878;2023-06-22T10:43:21;100687.28;;;33.15;46.29
50484;BME280;36409;52.168;20.878;2023-06-22T10:45:52;100687.10;;;33.17;46.00
50484;BME280;36409;52.168;20.878;2023-06-22T10:48:22;100694.92;;;33.28;46.18
50484;BME280;36409;52.168;20.878;2023-06-22T10:50:50;100689.85;;;33.33;45.60
50484;BME280;36409;52.168;20.878;2023-06-22T10:53:22;100684.16;;;33.36;45.57
50484;BME280;36409;52.168;20.878;2023-06-22T10:55:51;100668.81;;;33.45;45.35
50484;BME280;36409;52.168;20.878;2023-06-22T10:58:25;100677.31;;;33.67;45.17
50484;BME280;36409;52.168;20.878;2023-06-22T11:00:55;100675.29;;;33.69;45.28
50484;BME280;36409;52.168;20.878;2023-06-22T11:03:24;100678.50;;;33.72;45.03
50484;BME280;36409;52.168;20.878;2023-06-22T11:05:55;100669.77;;;33.87;44.88
50484;BME280;36409;52.168;20.878;2023-06-22T11:08:24;100673.31;;;33.87;44.78
50484;BME280;36409;52.168;20.878;2023-06-22T11:10:53;100674.16;;;34.05;44.83
50484;BME280;36409;52.168;20.878;2023-06-22T11:13:22;100671.30;;;34.14;44.00
50484;BME280;36409;52.168;20.878;2023-06-22T11:15:53;100666.38;;;34.26;43.75
50484;BME280;36409;52.168;20.878;2023-06-22T11:18:22;100670.45;;;34.22;43.53
50484;BME280;36409;52.168;20.878;2023-06-22T11:20:52;100670.61;;;34.21;43.26
50484;BME280;36409;52.168;20.878;2023-06-22T11:23:24;100656.56;;;34.00;43.04
50484;BME280;36409;52.168;20.878;2023-06-22T11:25:54;100662.84;;;34.01;42.93
50484;BME280;36409;52.168;20.878;2023-06-22T11:28:23;100664.53;;;34.02;43.14
50484;BME280;36409;52.168;20.878;2023-06-22T11:30:53;100658.61;;;34.07;42.55
50484;BME280;36409;52.168;20.878;2023-06-22T11:33:24;100664.86;;;33.91;42.50
50484;BME280;36409;52.168;20.878;2023-06-22T11:35:56;100673.66;;;33.93;42.25
50484;BME280;36409;52.168;20.878;2023-06-22T11:38:25;100675.92;;;33.54;42.39
50484;BME280;36409;52.168;20.878;2023-06-22T11:40:55;100665.28;;;33.53;42.54
50484;BME280;36409;52.168;20.878;2023-06-22T11:43:24;100662.77;;;33.60;42.33
50484;BME280;36409;52.168;20.878;2023-06-22T11:45:53;100667.36;;;33.76;42.40
50484;BME280;36409;52.168;20.878;2023-06-22T11:48:24;100669.05;;;33.77;41.87
50484;BME280;36409;52.168;20.878;2023-06-22T11:50:54;100660.94;;;33.77;41.99
50484;BME280;36409;52.168;20.878;2023-06-22T11:53:26;100663.67;;;33.93;42.17
50484;BME280;36409;52.168;20.878;2023-06-22T11:55:57;100672.33;;;34.05;41.76
50484;BME280;36409;52.168;20.878;2023-06-22T11:58:26;100669.94;;;34.10;41.69
50484;BME280;36409;52.168;20.878;2023-06-22T12:00:56;100677.37;;;34.00;41.20
50484;BME280;36409;52.168;20.878;2023-06-22T12:03:25;100669.27;;;33.92;40.96
50484;BME280;36409;52.168;20.878;2023-06-22T12:05:57;100654.98;;;33.73;40.85
50484;BME280;36409;52.168;20.878;2023-06-22T12:08:27;100650.44;;;33.73;41.00
50484;BME280;36409;52.168;20.878;2023-06-22T12:10:56;100652.13;;;33.66;41.08
50484;BME280;36409;52.168;20.878;2023-06-22T12:13:25;100646.19;;;33.63;40.65
50484;BME280;36409;52.168;20.878;2023-06-22T12:15:54;100650.25;;;33.59;40.60
50484;BME280;36409;52.168;20.878;2023-06-22T12:18:26;100645.67;;;33.59;40.65
50484;BME280;36409;52.168;20.878;2023-06-22T12:20:55;100652.45;;;33.63;40.38
50484;BME280;36409;52.168;20.878;2023-06-22T12:23:24;100642.47;;;33.64;40.46
50484;BME280;36409;52.168;20.878;2023-06-22T12:25:55;100648.70;;;33.56;40.13
50484;BME280;36409;52.168;20.878;2023-06-22T12:28:23;100653.78;;;33.51;40.14
50484;BME280;36409;52.168;20.878;2023-06-22T12:30:52;100633.84;;;33.52;40.37
50484;BME280;36409;52.168;20.878;2023-06-22T12:33:21;100632.33;;;33.57;40.23
50484;BME280;36409;52.168;20.878;2023-06-22T12:35:50;100630.48;;;33.66;40.27
50484;BME280;36409;52.168;20.878;2023-06-22T12:38:25;100641.64;;;33.63;39.68
50484;BME280;36409;52.168;20.878;2023-06-22T12:40:55;100640.80;;;33.71;39.48
50484;BME280;36409;52.168;20.878;2023-06-22T12:43:24;100631.50;;;33.65;39.09
50484;BME280;36409;52.168;20.878;2023-06-22T12:45:54;100638.25;;;33.61;39.36
50484;BME280;36409;52.168;20.878;2023-06-22T12:48:27;100636.22;;;33.55;38.94
50484;BME280;36409;52.168;20.878;2023-06-22T12:50:56;100638.06;;;33.54;39.18
50484;BME280;36409;52.168;20.878;2023-06-22T12:53:25;100645.67;;;33.59;38.79
50484;BME280;36409;52.168;20.878;2023-06-22T12:55:56;100640.63;;;33.64;39.00
50484;BME280;36409;52.168;20.878;2023-06-22T12:58:25;100643.84;;;33.68;38.98
50484;BME280;36409;52.168;20.878;2023-06-22T13:00:57;100645.53;;;33.69;38.74
50484;BME280;36409;52.168;20.878;2023-06-22T13:03:26;100639.25;;;33.52;38.68